sensor_id;sensor_type;location;lat;lon;timestamp;P1;durP1;ratioP1;P2;durP2;ratioP2
16159;SDS011;8185;57.818;15.224;2023-01-13T00:00:37;2.93;;;1.20;;
16159;SDS011;8185;57.818;15.224;2023-01-13T00:03:04;2.53;;;1.27;;
16159;SDS011;8185;57.818;15.224;2023-01-13T00:05:33;2.40;;;1.10;;
16159;SDS011;8185;57.818;15.224;2023-01-13T00:08:00;2.10;;;0.90;;
16159;SDS011;8185;57.818;15.224;2023-01-13T00:10:29;3.80;;;1.10;;
16159;SDS011;8185;57.818;15.224;2023-01-13T00:12:56;3.73;;;0.97;;
16159;SDS011;8185;57.818;15.224;2023-01-13T00:15:23;3.57;;;1.00;;
16159;SDS011;8185;57.818;15.224;2023-01-13T00:17:51;1.60;;;0.90;;
16159;SDS011;8185;57.818;15.224;2023-01-13T00:20:18;1.57;;;0.70;;
16159;SDS011;8185;57.818;15.224;2023-01-13T00:22:47;1.90;;;1.00;;
16159;SDS011;8185;57.818;15.224;2023-01-13T00:25:14;5.40;;;0.90;;
16159;SDS011;8185;57.818;15.224;2023-01-13T00:27:41;0.90;;;0.57;;
16159;SDS011;8185;57.818;15.224;2023-01-13T00:30:09;1.37;;;0.63;;
16159;SDS011;8185;57.818;15.224;2023-01-13T00:32:36;1.13;;;0.80;;
16159;SDS011;8185;57.818;15.224;2023-01-13T00:35:04;2.43;;;0.90;;
16159;SDS011;8185;57.818;15.224;2023-01-13T00:37:34;2.67;;;1.40;;
16159;SDS011;8185;57.818;15.224;2023-01-13T00:40:04;3.90;;;1.07;;
16159;SDS011;8185;57.818;15.224;2023-01-13T00:42:32;2.13;;;0.90;;
16159;SDS011;8185;57.818;15.224;2023-01-13T00:45:17;2.80;;;0.70;;
16159;SDS011;8185;57.818;15.224;2023-01-13T00:47:44;3.13;;;0.70;;
16159;SDS011;8185;57.818;15.224;2023-01-13T00:50:11;1.00;;;0.70;;
16159;SDS011;8185;57.818;15.224;2023-01-13T00:52:38;0.70;;;0.60;;
16159;SDS011;8185;57.818;15.224;2023-01-13T00:55:07;1.47;;;0.80;;
16159;SDS011;8185;57.818;15.224;2023-01-13T00:57:35;0.97;;;0.60;;
16159;SDS011;8185;57.818;15.224;2023-01-13T01:00:02;1.00;;;0.60;;
16159;SDS011;8185;57.818;15.224;2023-01-13T01:02:29;0.63;;;0.60;;
16159;SDS011;8185;57.818;15.224;2023-01-13T01:04:56;1.47;;;0.70;;
16159;SDS011;8185;57.818;15.224;2023-01-13T01:07:25;0.90;;;0.70;;
16159;SDS011;8185;57.818;15.224;2023-01-13T01:09:52;2.40;;;0.70;;
16159;SDS011;8185;57.818;15.224;2023-01-13T01:12:20;0.83;;;0.70;;
16159;SDS011;8185;57.818;15.224;2023-01-13T01:14:47;2.00;;;0.90;;
16159;SDS011;8185;57.818;15.224;2023-01-13T01:17:15;2.40;;;0.73;;
16159;SDS011;8185;57.818;15.224;2023-01-13T01:19:42;1.07;;;0.87;;
16159;SDS011;8185;57.818;15.224;2023-01-13T01:22:09;1.87;;;0.90;;
16159;SDS011;8185;57.818;15.224;2023-01-13T01:24:36;1.60;;;0.93;;
16159;SDS011;8185;57.818;15.224;2023-01-13T01:27:03;3.83;;;0.93;;
16159;SDS011;8185;57.818;15.224;2023-01-13T01:29:32;2.00;;;0.87;;
16159;SDS011;8185;57.818;15.224;2023-01-13T01:31:59;3.70;;;1.03;;
16159;SDS011;8185;57.818;15.224;2023-01-13T01:34:26;1.83;;;1.20;;
16159;SDS011;8185;57.818;15.224;2023-01-13T01:36:53;0.80;;;0.80;;
16159;SDS011;8185;57.818;15.224;2023-01-13T01:39:20;1.30;;;1.20;;
16159;SDS011;8185;57.818;15.224;2023-01-13T01:41:48;2.10;;;1.20;;
16159;SDS011;8185;57.818;15.224;2023-01-13T01:44:50;0.93;;;0.90;;
16159;SDS011;8185;57.818;15.224;2023-01-13T01:47:26;1.00;;;0.90;;
16159;SDS011;8185;57.818;15.224;2023-01-13T01:49:55;1.10;;;1.00;;
16159;SDS011;8185;57.818;15.224;2023-01-13T01:52:25;3.33;;;0.83;;
16159;SDS011;8185;57.818;15.224;2023-01-13T01:54:55;2.60;;;1.00;;
16159;SDS011;8185;57.818;15.224;2023-01-13T01:57:28;1.23;;;0.80;;
16159;SDS011;8185;57.818;15.224;2023-01-13T02:00:02;1.83;;;0.90;;
16159;SDS011;8185;57.818;15.224;2023-01-13T02:02:30;1.63;;;0.80;;
16159;SDS011;8185;57.818;15.224;2023-01-13T02:04:58;1.00;;;0.90;;
16159;SDS011;8185;57.818;15.224;2023-01-13T02:07:27;1.37;;;0.93;;
16159;SDS011;8185;57.818;15.224;2023-01-13T02:09:58;1.40;;;0.90;;
16159;SDS011;8185;57.818;15.224;2023-01-13T02:12:29;0.90;;;0.73;;
16159;SDS011;8185;57.818;15.224;2023-01-13T02:14:58;0.80;;;0.80;;
16159;SDS011;8185;57.818;15.224;2023-01-13T02:17:32;0.80;;;0.80;;
16159;SDS011;8185;57.818;15.224;2023-01-13T02:29:57;2.33;;;1.30;;
16159;SDS011;8185;57.818;15.224;2023-01-13T02:32:51;2.10;;;1.50;;
16159;SDS011;8185;57.818;15.224;2023-01-13T02:35:28;2.30;;;1.73;;
16159;SDS011;8185;57.818;15.224;2023-01-13T02:38:03;1.40;;;1.30;;
16159;SDS011;8185;57.818;15.224;2023-01-13T02:40:35;1.30;;;1.20;;
16159;SDS011;8185;57.818;15.224;2023-01-13T02:43:07;2.53;;;1.30;;
16159;SDS011;8185;57.818;15.224;2023-01-13T02:45:59;1.70;;;1.40;;
16159;SDS011;8185;57.818;15.224;2023-01-13T02:48:30;1.57;;;1.30;;
16159;SDS011;8185;57.818;15.224;2023-01-13T02:50:58;1.80;;;1.43;;
16159;SDS011;8185;57.818;15.224;2023-01-13T02:53:30;3.03;;;2.40;;
16159;SDS011;8185;57.818;15.224;2023-01-13T02:56:00;4.20;;;1.57;;
16159;SDS011;8185;57.818;15.224;2023-01-13T02:58:30;1.50;;;1.40;;
16159;SDS011;8185;57.818;15.224;2023-01-13T03:01:01;1.93;;;1.70;;
16159;SDS011;8185;57.818;15.224;2023-01-13T03:03:29;1.57;;;1.23;;
16159;SDS011;8185;57.818;15.224;2023-01-13T03:06:06;2.80;;;1.50;;
16159;SDS011;8185;57.818;15.224;2023-01-13T03:08:44;2.40;;;2.10;;
16159;SDS011;8185;57.818;15.224;2023-01-13T03:11:18;1.53;;;1.40;;
16159;SDS011;8185;57.818;15.224;2023-01-13T03:13:49;1.50;;;1.40;;
16159;SDS011;8185;57.818;15.224;2023-01-13T03:16:39;1.73;;;1.40;;
16159;SDS011;8185;57.818;15.224;2023-01-13T03:19:16;1.83;;;1.20;;
16159;SDS011;8185;57.818;15.224;2023-01-13T03:21:52;1.50;;;1.40;;
16159;SDS011;8185;57.818;15.224;2023-01-13T03:24:24;1.40;;;1.30;;
16159;SDS011;8185;57.818;15.224;2023-01-13T03:26:57;3.13;;;1.40;;
16159;SDS011;8185;57.818;15.224;2023-01-13T03:29:31;1.60;;;1.50;;
16159;SDS011;8185;57.818;15.224;2023-01-13T03:32:06;1.47;;;1.37;;
16159;SDS011;8185;57.818;15.224;2023-01-13T03:34:38;3.60;;;1.50;;
16159;SDS011;8185;57.818;15.224;2023-01-13T03:37:10;1.93;;;1.50;;
16159;SDS011;8185;57.818;15.224;2023-01-13T03:39:42;2.03;;;1.50;;
16159;SDS011;8185;57.818;15.224;2023-01-13T03:42:16;1.87;;;1.57;;
16159;SDS011;8185;57.818;15.224;2023-01-13T03:44:47;1.50;;;1.30;;
16159;SDS011;8185;57.818;15.224;2023-01-13T03:47:22;1.53;;;1.43;;
16159;SDS011;8185;57.818;15.224;2023-01-13T03:49:56;1.93;;;1.40;;
16159;SDS011;8185;57.818;15.224;2023-01-13T03:52:31;1.83;;;1.00;;
16159;SDS011;8185;57.818;15.224;2023-01-13T03:55:01;1.17;;;1.07;;
16159;SDS011;8185;57.818;15.224;2023-01-13T03:57:33;1.37;;;0.90;;
16159;SDS011;8185;57.818;15.224;2023-01-13T04:00:04;1.20;;;1.10;;
16159;SDS011;8185;57.818;15.224;2023-01-13T04:02:39;0.83;;;0.83;;
16159;SDS011;8185;57.818;15.224;2023-01-13T04:05:14;0.80;;;0.80;;
16159;SDS011;8185;57.818;15.224;2023-01-13T04:07:48;1.90;;;0.93;;
16159;SDS011;8185;57.818;15.224;2023-01-13T04:10:22;1.17;;;0.90;;
16159;SDS011;8185;57.818;15.224;2023-01-13T04:12:55;0.90;;;0.87;;
16159;SDS011;8185;57.818;15.224;2023-01-13T04:15:27;2.77;;;1.00;;
16159;SDS011;8185;57.818;15.224;2023-01-13T04:18:15;3.33;;;1.03;;
16159;SDS011;8185;57.818;15.224;2023-01-13T04:20:44;1.33;;;0.93;;
16159;SDS011;8185;57.818;15.224;2023-01-13T04:23:14;1.10;;;0.90;;
16159;SDS011;8185;57.818;15.224;2023-01-13T04:25:43;0.73;;;0.73;;
16159;SDS011;8185;57.818;15.224;2023-01-13T04:28:11;1.20;;;1.00;;
16159;SDS011;8185;57.818;15.224;2023-01-13T04:30:39;1.00;;;0.90;;
16159;SDS011;8185;57.818;15.224;2023-01-13T04:33:07;1.10;;;1.00;;
16159;SDS011;8185;57.818;15.224;2023-01-13T04:35:36;0.80;;;0.80;;
16159;SDS011;8185;57.818;15.224;2023-01-13T04:38:04;0.60;;;0.60;;
16159;SDS011;8185;57.818;15.224;2023-01-13T04:40:33;0.80;;;0.80;;
16159;SDS011;8185;57.818;15.224;2023-01-13T04:43:00;1.00;;;0.80;;
16159;SDS011;8185;57.818;15.224;2023-01-13T04:45:27;1.43;;;0.90;;
16159;SDS011;8185;57.818;15.224;2023-01-13T04:47:54;0.70;;;0.70;;
16159;SDS011;8185;57.818;15.224;2023-01-13T04:50:22;1.13;;;0.70;;
16159;SDS011;8185;57.818;15.224;2023-01-13T04:52:51;0.70;;;0.70;;
16159;SDS011;8185;57.818;15.224;2023-01-13T04:55:20;0.60;;;0.60;;
16159;SDS011;8185;57.818;15.224;2023-01-13T04:57:49;0.77;;;0.70;;
16159;SDS011;8185;57.818;15.224;2023-01-13T05:00:17;0.80;;;0.60;;
16159;SDS011;8185;57.818;15.224;2023-01-13T05:02:47;1.00;;;0.87;;
16159;SDS011;8185;57.818;15.224;2023-01-13T05:05:15;1.50;;;0.90;;
16159;SDS011;8185;57.818;15.224;2023-01-13T05:07:43;0.80;;;0.80;;
16159;SDS011;8185;57.818;15.224;2023-01-13T05:10:11;0.80;;;0.80;;
16159;SDS011;8185;57.818;15.224;2023-01-13T05:12:39;1.03;;;0.87;;
16159;SDS011;8185;57.818;15.224;2023-01-13T05:15:23;1.40;;;0.80;;
16159;SDS011;8185;57.818;15.224;2023-01-13T05:18:08;0.90;;;0.70;;
16159;SDS011;8185;57.818;15.224;2023-01-13T05:20:36;2.10;;;1.23;;
16159;SDS011;8185;57.818;15.224;2023-01-13T05:23:03;1.03;;;0.90;;
16159;SDS011;8185;57.818;15.224;2023-01-13T05:25:49;0.83;;;0.73;;
16159;SDS011;8185;57.818;15.224;2023-01-13T05:28:16;0.90;;;0.70;;
16159;SDS011;8185;57.818;15.224;2023-01-13T05:30:44;0.80;;;0.80;;
16159;SDS011;8185;57.818;15.224;2023-01-13T05:33:14;1.07;;;0.70;;
16159;SDS011;8185;57.818;15.224;2023-01-13T05:35:43;0.70;;;0.70;;
16159;SDS011;8185;57.818;15.224;2023-01-13T05:38:11;2.10;;;0.70;;
16159;SDS011;8185;57.818;15.224;2023-01-13T05:40:39;0.60;;;0.60;;
16159;SDS011;8185;57.818;15.224;2023-01-13T05:43:26;0.60;;;0.60;;
16159;SDS011;8185;57.818;15.224;2023-01-13T05:45:55;0.63;;;0.53;;
16159;SDS011;8185;57.818;15.224;2023-01-13T05:48:24;1.53;;;0.60;;
16159;SDS011;8185;57.818;15.224;2023-01-13T05:50:53;0.50;;;0.50;;
16159;SDS011;8185;57.818;15.224;2023-01-13T05:53:20;0.50;;;0.50;;
16159;SDS011;8185;57.818;15.224;2023-01-13T05:55:49;0.80;;;0.60;;
16159;SDS011;8185;57.818;15.224;2023-01-13T05:58:17;1.73;;;0.70;;
16159;SDS011;8185;57.818;15.224;2023-01-13T06:00:46;0.73;;;0.70;;
16159;SDS011;8185;57.818;15.224;2023-01-13T06:03:14;0.80;;;0.50;;
16159;SDS011;8185;57.818;15.224;2023-01-13T06:05:44;1.43;;;0.70;;
16159;SDS011;8185;57.818;15.224;2023-01-13T06:08:11;0.50;;;0.50;;
16159;SDS011;8185;57.818;15.224;2023-01-13T06:10:38;0.70;;;0.63;;
16159;SDS011;8185;57.818;15.224;2023-01-13T06:13:05;0.50;;;0.50;;
16159;SDS011;8185;57.818;15.224;2023-01-13T06:15:33;0.40;;;0.40;;
16159;SDS011;8185;57.818;15.224;2023-01-13T06:18:02;0.50;;;0.50;;
16159;SDS011;8185;57.818;15.224;2023-01-13T06:20:30;0.60;;;0.47;;
16159;SDS011;8185;57.818;15.224;2023-01-13T06:22:58;0.77;;;0.50;;
16159;SDS011;8185;57.818;15.224;2023-01-13T06:25:29;1.60;;;0.40;;
16159;SDS011;8185;57.818;15.224;2023-01-13T06:28:03;1.30;;;0.53;;
16159;SDS011;8185;57.818;15.224;2023-01-13T06:30:32;0.73;;;0.60;;
16159;SDS011;8185;57.818;15.224;2023-01-13T06:33:05;1.70;;;0.60;;
16159;SDS011;8185;57.818;15.224;2023-01-13T06:35:38;2.03;;;0.60;;
16159;SDS011;8185;57.818;15.224;2023-01-13T06:38:10;1.70;;;0.70;;
16159;SDS011;8185;57.818;15.224;2023-01-13T06:40:40;0.77;;;0.53;;
16159;SDS011;8185;57.818;15.224;2023-01-13T06:43:08;0.70;;;0.50;;
16159;SDS011;8185;57.818;15.224;2023-01-13T06:45:41;1.60;;;0.60;;
16159;SDS011;8185;57.818;15.224;2023-01-13T06:48:12;1.80;;;0.83;;
16159;SDS011;8185;57.818;15.224;2023-01-13T06:50:39;0.87;;;0.70;;
16159;SDS011;8185;57.818;15.224;2023-01-13T06:53:07;0.70;;;0.50;;
16159;SDS011;8185;57.818;15.224;2023-01-13T06:55:34;4.90;;;1.73;;
16159;SDS011;8185;57.818;15.224;2023-01-13T06:58:02;3.00;;;1.13;;
16159;SDS011;8185;57.818;15.224;2023-01-13T07:00:30;4.77;;;0.90;;
16159;SDS011;8185;57.818;15.224;2023-01-13T07:03:06;5.73;;;1.00;;
16159;SDS011;8185;57.818;15.224;2023-01-13T07:05:36;4.43;;;0.97;;
16159;SDS011;8185;57.818;15.224;2023-01-13T07:08:04;4.80;;;1.03;;
16159;SDS011;8185;57.818;15.224;2023-01-13T07:10:31;2.67;;;0.80;;
16159;SDS011;8185;57.818;15.224;2023-01-13T07:12:59;2.37;;;1.00;;
16159;SDS011;8185;57.818;15.224;2023-01-13T07:15:54;4.00;;;1.30;;
16159;SDS011;8185;57.818;15.224;2023-01-13T07:18:22;8.70;;;1.37;;
16159;SDS011;8185;57.818;15.224;2023-01-13T07:20:53;4.87;;;1.53;;
16159;SDS011;8185;57.818;15.224;2023-01-13T07:23:21;3.83;;;1.40;;
16159;SDS011;8185;57.818;15.224;2023-01-13T07:25:49;4.37;;;1.83;;
16159;SDS011;8185;57.818;15.224;2023-01-13T07:28:16;3.83;;;1.20;;
16159;SDS011;8185;57.818;15.224;2023-01-13T07:30:43;4.07;;;1.63;;
16159;SDS011;8185;57.818;15.224;2023-01-13T07:33:10;10.80;;;1.83;;
16159;SDS011;8185;57.818;15.224;2023-01-13T07:35:37;10.07;;;1.73;;
16159;SDS011;8185;57.818;15.224;2023-01-13T07:38:06;5.70;;;1.90;;
16159;SDS011;8185;57.818;15.224;2023-01-13T07:40:33;8.00;;;1.70;;
16159;SDS011;8185;57.818;15.224;2023-01-13T07:43:01;9.57;;;2.10;;
16159;SDS011;8185;57.818;15.224;2023-01-13T07:45:45;5.63;;;1.60;;
16159;SDS011;8185;57.818;15.224;2023-01-13T07:48:12;10.53;;;2.30;;
16159;SDS011;8185;57.818;15.224;2023-01-13T07:50:40;7.43;;;1.80;;
16159;SDS011;8185;57.818;15.224;2023-01-13T07:53:08;8.30;;;2.40;;
16159;SDS011;8185;57.818;15.224;2023-01-13T07:55:39;11.47;;;2.63;;
16159;SDS011;8185;57.818;15.224;2023-01-13T07:58:06;8.97;;;1.87;;
16159;SDS011;8185;57.818;15.224;2023-01-13T08:00:34;18.00;;;2.57;;
16159;SDS011;8185;57.818;15.224;2023-01-13T08:03:01;12.47;;;2.23;;
16159;SDS011;8185;57.818;15.224;2023-01-13T08:05:28;6.27;;;1.50;;
16159;SDS011;8185;57.818;15.224;2023-01-13T08:07:56;13.47;;;2.90;;
16159;SDS011;8185;57.818;15.224;2023-01-13T08:10:24;11.63;;;1.97;;
16159;SDS011;8185;57.818;15.224;2023-01-13T08:12:52;10.47;;;2.40;;
16159;SDS011;8185;57.818;15.224;2023-01-13T08:15:36;15.83;;;2.50;;
16159;SDS011;8185;57.818;15.224;2023-01-13T08:18:03;11.80;;;2.00;;
16159;SDS011;8185;57.818;15.224;2023-01-13T08:20:30;14.27;;;2.23;;
16159;SDS011;8185;57.818;15.224;2023-01-13T08:22:58;13.00;;;1.93;;
16159;SDS011;8185;57.818;15.224;2023-01-13T08:25:27;10.77;;;2.47;;
16159;SDS011;8185;57.818;15.224;2023-01-13T08:27:55;12.57;;;2.10;;
16159;SDS011;8185;57.818;15.224;2023-01-13T08:30:24;7.60;;;2.00;;
16159;SDS011;8185;57.818;15.224;2023-01-13T08:32:52;12.30;;;1.97;;
16159;SDS011;8185;57.818;15.224;2023-01-13T08:35:20;10.43;;;2.33;;
16159;SDS011;8185;57.818;15.224;2023-01-13T08:37:48;11.20;;;2.37;;
16159;SDS011;8185;57.818;15.224;2023-01-13T08:40:16;11.83;;;2.83;;
16159;SDS011;8185;57.818;15.224;2023-01-13T08:42:46;16.70;;;3.17;;
16159;SDS011;8185;57.818;15.224;2023-01-13T08:45:13;16.90;;;2.70;;
16159;SDS011;8185;57.818;15.224;2023-01-13T08:47:41;10.60;;;2.33;;
16159;SDS011;8185;57.818;15.224;2023-01-13T08:50:09;16.40;;;2.40;;
16159;SDS011;8185;57.818;15.224;2023-01-13T08:52:36;14.43;;;2.50;;
16159;SDS011;8185;57.818;15.224;2023-01-13T08:55:04;8.33;;;1.70;;
16159;SDS011;8185;57.818;15.224;2023-01-13T08:57:32;8.17;;;2.07;;
16159;SDS011;8185;57.818;15.224;2023-01-13T09:00:01;13.27;;;2.77;;
16159;SDS011;8185;57.818;15.224;2023-01-13T09:02:30;10.40;;;2.00;;
16159;SDS011;8185;57.818;15.224;2023-01-13T09:04:58;10.43;;;1.83;;
16159;SDS011;8185;57.818;15.224;2023-01-13T09:07:28;7.10;;;1.93;;
16159;SDS011;8185;57.818;15.224;2023-01-13T09:09:55;12.17;;;2.00;;
16159;SDS011;8185;57.818;15.224;2023-01-13T09:12:22;13.00;;;2.70;;
16159;SDS011;8185;57.818;15.224;2023-01-13T09:15:09;14.73;;;2.17;;
16159;SDS011;8185;57.818;15.224;2023-01-13T09:17:37;12.43;;;1.77;;
16159;SDS011;8185;57.818;15.224;2023-01-13T09:20:04;12.73;;;2.43;;
16159;SDS011;8185;57.818;15.224;2023-01-13T09:22:32;12.50;;;2.13;;
16159;SDS011;8185;57.818;15.224;2023-01-13T09:25:01;16.20;;;2.13;;
16159;SDS011;8185;57.818;15.224;2023-01-13T09:27:29;6.30;;;1.97;;
16159;SDS011;8185;57.818;15.224;2023-01-13T09:29:56;11.70;;;1.83;;
16159;SDS011;8185;57.818;15.224;2023-01-13T09:32:25;9.23;;;1.83;;
16159;SDS011;8185;57.818;15.224;2023-01-13T09:34:52;14.00;;;2.00;;
16159;SDS011;8185;57.818;15.224;2023-01-13T09:37:24;6.60;;;1.70;;
16159;SDS011;8185;57.818;15.224;2023-01-13T09:39:52;7.43;;;1.53;;
16159;SDS011;8185;57.818;15.224;2023-01-13T09:42:22;9.40;;;1.97;;
16159;SDS011;8185;57.818;15.224;2023-01-13T09:45:12;15.07;;;2.23;;
16159;SDS011;8185;57.818;15.224;2023-01-13T09:47:44;16.37;;;3.40;;
16159;SDS011;8185;57.818;15.224;2023-01-13T09:50:32;12.83;;;1.90;;
16159;SDS011;8185;57.818;15.224;2023-01-13T09:53:18;12.40;;;1.90;;
16159;SDS011;8185;57.818;15.224;2023-01-13T09:55:47;12.73;;;2.60;;
16159;SDS011;8185;57.818;15.224;2023-01-13T09:58:15;18.07;;;3.17;;
16159;SDS011;8185;57.818;15.224;2023-01-13T10:00:44;17.77;;;2.63;;
16159;SDS011;8185;57.818;15.224;2023-01-13T10:03:24;16.67;;;3.50;;
16159;SDS011;8185;57.818;15.224;2023-01-13T10:05:53;14.40;;;2.57;;
16159;SDS011;8185;57.818;15.224;2023-01-13T10:08:25;16.77;;;3.40;;
16159;SDS011;8185;57.818;15.224;2023-01-13T10:10:55;22.30;;;2.87;;
16159;SDS011;8185;57.818;15.224;2023-01-13T10:13:25;13.83;;;2.83;;
16159;SDS011;8185;57.818;15.224;2023-01-13T10:15:58;10.03;;;2.37;;
16159;SDS011;8185;57.818;15.224;2023-01-13T10:18:54;16.47;;;3.03;;
16159;SDS011;8185;57.818;15.224;2023-01-13T10:21:38;13.87;;;2.63;;
16159;SDS011;8185;57.818;15.224;2023-01-13T10:24:27;19.33;;;3.13;;
16159;SDS011;8185;57.818;15.224;2023-01-13T10:27:06;17.53;;;3.03;;
16159;SDS011;8185;57.818;15.224;2023-01-13T10:29:43;15.40;;;2.63;;
16159;SDS011;8185;57.818;15.224;2023-01-13T10:32:10;12.10;;;3.73;;
16159;SDS011;8185;57.818;15.224;2023-01-13T10:34:45;14.13;;;3.67;;
16159;SDS011;8185;57.818;15.224;2023-01-13T10:37:18;19.77;;;3.03;;
16159;SDS011;8185;57.818;15.224;2023-01-13T10:39:46;13.53;;;2.97;;
16159;SDS011;8185;57.818;15.224;2023-01-13T10:42:15;23.80;;;3.33;;
16159;SDS011;8185;57.818;15.224;2023-01-13T10:44:47;10.80;;;2.57;;
16159;SDS011;8185;57.818;15.224;2023-01-13T10:47:18;7.93;;;2.77;;
16159;SDS011;8185;57.818;15.224;2023-01-13T10:50:05;6.10;;;2.50;;
16159;SDS011;8185;57.818;15.224;2023-01-13T10:52:57;16.97;;;3.10;;
16159;SDS011;8185;57.818;15.224;2023-01-13T10:55:27;21.83;;;3.70;;
16159;SDS011;8185;57.818;15.224;2023-01-13T10:57:57;8.87;;;2.83;;
16159;SDS011;8185;57.818;15.224;2023-01-13T11:00:39;22.30;;;3.73;;
16159;SDS011;8185;57.818;15.224;2023-01-13T11:03:16;20.83;;;3.03;;
16159;SDS011;8185;57.818;15.224;2023-01-13T11:05:53;18.27;;;3.03;;
16159;SDS011;8185;57.818;15.224;2023-01-13T11:08:22;11.53;;;2.67;;
16159;SDS011;8185;57.818;15.224;2023-01-13T11:10:51;15.13;;;2.50;;
16159;SDS011;8185;57.818;15.224;2023-01-13T11:13:24;21.00;;;3.60;;
16159;SDS011;8185;57.818;15.224;2023-01-13T11:15:59;20.50;;;3.77;;
16159;SDS011;8185;57.818;15.224;2023-01-13T11:18:34;34.10;;;5.23;;
16159;SDS011;8185;57.818;15.224;2023-01-13T11:21:10;20.73;;;3.20;;
16159;SDS011;8185;57.818;15.224;2023-01-13T11:23:48;18.10;;;3.27;;
16159;SDS011;8185;57.818;15.224;2023-01-13T11:26:20;12.23;;;2.43;;
16159;SDS011;8185;57.818;15.224;2023-01-13T11:28:52;14.40;;;3.90;;
16159;SDS011;8185;57.818;15.224;2023-01-13T11:31:26;15.00;;;3.30;;
16159;SDS011;8185;57.818;15.224;2023-01-13T11:33:58;14.80;;;3.20;;
16159;SDS011;8185;57.818;15.224;2023-01-13T11:36:32;14.30;;;3.63;;
16159;SDS011;8185;57.818;15.224;2023-01-13T11:39:08;15.93;;;3.10;;
16159;SDS011;8185;57.818;15.224;2023-01-13T11:41:46;21.80;;;3.30;;
16159;SDS011;8185;57.818;15.224;2023-01-13T11:44:38;21.23;;;3.90;;
16159;SDS011;8185;57.818;15.224;2023-01-13T11:47:10;13.97;;;2.97;;
16159;SDS011;8185;57.818;15.224;2023-01-13T11:49:38;17.53;;;2.47;;
16159;SDS011;8185;57.818;15.224;2023-01-13T11:52:13;22.90;;;4.23;;
16159;SDS011;8185;57.818;15.224;2023-01-13T11:57:45;14.67;;;3.10;;
16159;SDS011;8185;57.818;15.224;2023-01-13T12:03:58;15.87;;;3.00;;
16159;SDS011;8185;57.818;15.224;2023-01-13T12:06:42;17.13;;;2.87;;
16159;SDS011;8185;57.818;15.224;2023-01-13T12:09:17;20.20;;;2.60;;
16159;SDS011;8185;57.818;15.224;2023-01-13T12:12:00;13.00;;;3.20;;
16159;SDS011;8185;57.818;15.224;2023-01-13T12:17:53;11.47;;;2.53;;
16159;SDS011;8185;57.818;15.224;2023-01-13T12:20:32;17.50;;;3.53;;
16159;SDS011;8185;57.818;15.224;2023-01-13T12:23:06;22.97;;;2.80;;
16159;SDS011;8185;57.818;15.224;2023-01-13T12:25:43;12.77;;;2.87;;
16159;SDS011;8185;57.818;15.224;2023-01-13T12:28:16;13.03;;;2.83;;
16159;SDS011;8185;57.818;15.224;2023-01-13T12:30:49;16.67;;;3.10;;
16159;SDS011;8185;57.818;15.224;2023-01-13T12:33:22;12.43;;;2.43;;
16159;SDS011;8185;57.818;15.224;2023-01-13T12:36:00;13.90;;;3.17;;
16159;SDS011;8185;57.818;15.224;2023-01-13T12:38:35;12.77;;;3.00;;
16159;SDS011;8185;57.818;15.224;2023-01-13T12:41:11;11.30;;;2.67;;
16159;SDS011;8185;57.818;15.224;2023-01-13T12:43:48;12.80;;;2.77;;
16159;SDS011;8185;57.818;15.224;2023-01-13T12:46:43;8.63;;;2.50;;
16159;SDS011;8185;57.818;15.224;2023-01-13T12:49:25;11.93;;;2.53;;
16159;SDS011;8185;57.818;15.224;2023-01-13T12:57:57;12.90;;;2.43;;
16159;SDS011;8185;57.818;15.224;2023-01-13T13:00:31;8.50;;;2.30;;
16159;SDS011;8185;57.818;15.224;2023-01-13T13:03:22;12.77;;;2.50;;
16159;SDS011;8185;57.818;15.224;2023-01-13T13:05:54;14.67;;;2.70;;
16159;SDS011;8185;57.818;15.224;2023-01-13T13:08:34;14.43;;;3.40;;
16159;SDS011;8185;57.818;15.224;2023-01-13T13:11:19;8.13;;;1.80;;
16159;SDS011;8185;57.818;15.224;2023-01-13T13:26:29;10.60;;;1.77;;
16159;SDS011;8185;57.818;15.224;2023-01-13T13:29:05;8.73;;;1.50;;
16159;SDS011;8185;57.818;15.224;2023-01-13T13:31:55;6.03;;;1.27;;
16159;SDS011;8185;57.818;15.224;2023-01-13T13:34:45;11.03;;;1.83;;
16159;SDS011;8185;57.818;15.224;2023-01-13T13:37:31;7.73;;;1.70;;
16159;SDS011;8185;57.818;15.224;2023-01-13T13:40:21;5.33;;;1.10;;
16159;SDS011;8185;57.818;15.224;2023-01-13T13:43:07;5.33;;;1.30;;
16159;SDS011;8185;57.818;15.224;2023-01-13T13:45:56;5.10;;;1.17;;
16159;SDS011;8185;57.818;15.224;2023-01-13T13:48:48;7.73;;;2.07;;
16159;SDS011;8185;57.818;15.224;2023-01-13T13:51:23;5.80;;;1.40;;
16159;SDS011;8185;57.818;15.224;2023-01-13T13:53:55;5.90;;;1.13;;
16159;SDS011;8185;57.818;15.224;2023-01-13T13:56:26;4.63;;;0.97;;
16159;SDS011;8185;57.818;15.224;2023-01-13T13:59:07;4.97;;;1.27;;
16159;SDS011;8185;57.818;15.224;2023-01-13T14:01:36;8.13;;;1.60;;
16159;SDS011;8185;57.818;15.224;2023-01-13T14:04:08;4.37;;;1.23;;
16159;SDS011;8185;57.818;15.224;2023-01-13T14:06:49;10.40;;;1.50;;
16159;SDS011;8185;57.818;15.224;2023-01-13T14:09:17;8.67;;;1.47;;
16159;SDS011;8185;57.818;15.224;2023-01-13T14:11:58;4.73;;;1.30;;
16159;SDS011;8185;57.818;15.224;2023-01-13T14:14:26;4.90;;;1.73;;
16159;SDS011;8185;57.818;15.224;2023-01-13T14:16:54;3.53;;;1.30;;
16159;SDS011;8185;57.818;15.224;2023-01-13T14:19:28;5.00;;;1.27;;
16159;SDS011;8185;57.818;15.224;2023-01-13T14:21:59;4.20;;;1.50;;
16159;SDS011;8185;57.818;15.224;2023-01-13T14:24:27;7.20;;;1.70;;
16159;SDS011;8185;57.818;15.224;2023-01-13T14:27:06;8.93;;;1.30;;
16159;SDS011;8185;57.818;15.224;2023-01-13T14:29:34;5.57;;;1.80;;
16159;SDS011;8185;57.818;15.224;2023-01-13T14:32:02;4.97;;;1.50;;
16159;SDS011;8185;57.818;15.224;2023-01-13T14:34:30;6.53;;;1.87;;
16159;SDS011;8185;57.818;15.224;2023-01-13T14:37:01;7.30;;;1.67;;
16159;SDS011;8185;57.818;15.224;2023-01-13T14:39:36;10.07;;;2.13;;
16159;SDS011;8185;57.818;15.224;2023-01-13T14:42:10;8.57;;;1.70;;
16159;SDS011;8185;57.818;15.224;2023-01-13T14:44:42;9.03;;;1.70;;
16159;SDS011;8185;57.818;15.224;2023-01-13T14:47:19;10.53;;;1.90;;
16159;SDS011;8185;57.818;15.224;2023-01-13T14:49:52;6.97;;;2.17;;
16159;SDS011;8185;57.818;15.224;2023-01-13T14:52:28;10.83;;;2.00;;
16159;SDS011;8185;57.818;15.224;2023-01-13T14:57:52;9.97;;;2.00;;
16159;SDS011;8185;57.818;15.224;2023-01-13T15:00:39;9.80;;;2.00;;
16159;SDS011;8185;57.818;15.224;2023-01-13T15:03:07;12.37;;;1.57;;
16159;SDS011;8185;57.818;15.224;2023-01-13T15:05:38;7.67;;;1.30;;
16159;SDS011;8185;57.818;15.224;2023-01-13T15:08:24;5.20;;;1.60;;
16159;SDS011;8185;57.818;15.224;2023-01-13T15:11:02;12.67;;;2.63;;
16159;SDS011;8185;57.818;15.224;2023-01-13T15:13:32;9.47;;;2.10;;
16159;SDS011;8185;57.818;15.224;2023-01-13T15:16:04;8.67;;;2.20;;
16159;SDS011;8185;57.818;15.224;2023-01-13T15:18:38;7.83;;;1.67;;
16159;SDS011;8185;57.818;15.224;2023-01-13T15:21:05;6.13;;;1.63;;
16159;SDS011;8185;57.818;15.224;2023-01-13T15:23:35;5.67;;;1.37;;
16159;SDS011;8185;57.818;15.224;2023-01-13T15:26:05;8.70;;;2.53;;
16159;SDS011;8185;57.818;15.224;2023-01-13T15:28:44;8.20;;;1.97;;
16159;SDS011;8185;57.818;15.224;2023-01-13T15:31:11;4.80;;;1.33;;
16159;SDS011;8185;57.818;15.224;2023-01-13T15:33:39;7.67;;;1.27;;
16159;SDS011;8185;57.818;15.224;2023-01-13T15:36:12;3.37;;;1.40;;
16159;SDS011;8185;57.818;15.224;2023-01-13T15:38:47;7.97;;;2.03;;
16159;SDS011;8185;57.818;15.224;2023-01-13T15:41:15;7.17;;;1.70;;
16159;SDS011;8185;57.818;15.224;2023-01-13T15:44:02;3.77;;;1.07;;
16159;SDS011;8185;57.818;15.224;2023-01-13T15:46:47;3.70;;;1.00;;
16159;SDS011;8185;57.818;15.224;2023-01-13T15:49:17;7.97;;;1.97;;
16159;SDS011;8185;57.818;15.224;2023-01-13T15:51:49;4.27;;;1.00;;
16159;SDS011;8185;57.818;15.224;2023-01-13T15:54:17;5.33;;;1.37;;